sensor_id;sensor_type;location;lat;lon;timestamp;P1;durP1;ratioP1;P2;durP2;ratioP2
74465;SDS011;62916;50.044;15.938;2023-06-14T00:00:21;1.90;;;1.80;;
74465;SDS011;62916;50.044;15.938;2023-06-14T00:02:51;2.30;;;2.10;;
74465;SDS011;62916;50.044;15.938;2023-06-14T00:05:24;3.00;;;2.20;;
74465;SDS011;62916;50.044;15.938;2023-06-14T00:07:57;2.30;;;2.10;;
74465;SDS011;62916;50.044;15.938;2023-06-14T00:10:28;2.30;;;2.00;;
74465;SDS011;62916;50.044;15.938;2023-06-14T00:13:00;3.30;;;1.90;;
74465;SDS011;62916;50.044;15.938;2023-06-14T00:15:31;2.10;;;1.90;;
74465;SDS011;62916;50.044;15.938;2023-06-14T00:18:03;2.70;;;2.20;;
74465;SDS011;62916;50.044;15.938;2023-06-14T00:20:35;2.70;;;2.40;;
74465;SDS011;62916;50.044;15.938;2023-06-14T00:23:05;1.90;;;1.80;;
74465;SDS011;62916;50.044;15.938;2023-06-14T00:25:36;2.70;;;2.50;;
74465;SDS011;62916;50.044;15.938;2023-06-14T00:28:07;2.30;;;1.80;;
74465;SDS011;62916;50.044;15.938;2023-06-14T00:30:38;2.30;;;2.10;;
74465;SDS011;62916;50.044;15.938;2023-06-14T00:33:11;1.90;;;1.70;;
74465;SDS011;62916;50.044;15.938;2023-06-14T00:35:43;1.70;;;1.60;;
74465;SDS011;62916;50.044;15.938;2023-06-14T00:38:15;2.60;;;2.10;;
74465;SDS011;62916;50.044;15.938;2023-06-14T00:40:46;2.30;;;2.10;;
74465;SDS011;62916;50.044;15.938;2023-06-14T00:43:17;2.60;;;1.60;;
74465;SDS011;62916;50.044;15.938;2023-06-14T00:45:47;2.80;;;2.00;;
74465;SDS011;62916;50.044;15.938;2023-06-14T00:48:19;1.90;;;1.80;;
74465;SDS011;62916;50.044;15.938;2023-06-14T00:50:51;2.30;;;1.90;;
74465;SDS011;62916;50.044;15.938;2023-06-14T00:53:23;2.00;;;1.80;;
74465;SDS011;62916;50.044;15.938;2023-06-14T00:55:53;2.10;;;1.90;;
74465;SDS011;62916;50.044;15.938;2023-06-14T00:58:24;2.80;;;2.10;;
74465;SDS011;62916;50.044;15.938;2023-06-14T01:00:55;1.90;;;1.70;;
74465;SDS011;62916;50.044;15.938;2023-06-14T01:03:26;2.00;;;1.80;;
74465;SDS011;62916;50.044;15.938;2023-06-14T01:05:59;2.10;;;1.90;;
74465;SDS011;62916;50.044;15.938;2023-06-14T01:08:40;2.50;;;2.00;;
74465;SDS011;62916;50.044;15.938;2023-06-14T01:11:21;1.90;;;1.80;;
74465;SDS011;62916;50.044;15.938;2023-06-14T01:13:56;2.40;;;1.90;;
74465;SDS011;62916;50.044;15.938;2023-06-14T01:16:29;2.60;;;2.20;;
74465;SDS011;62916;50.044;15.938;2023-06-14T01:19:04;1.80;;;1.70;;
74465;SDS011;62916;50.044;15.938;2023-06-14T01:21:40;2.20;;;2.00;;
74465;SDS011;62916;50.044;15.938;2023-06-14T01:24:11;2.50;;;1.80;;
74465;SDS011;62916;50.044;15.938;2023-06-14T01:26:42;2.00;;;1.80;;
74465;SDS011;62916;50.044;15.938;2023-06-14T01:29:14;2.90;;;1.80;;
74465;SDS011;62916;50.044;15.938;2023-06-14T01:31:45;2.20;;;2.00;;
74465;SDS011;62916;50.044;15.938;2023-06-14T01:34:17;2.00;;;1.90;;
74465;SDS011;62916;50.044;15.938;2023-06-14T01:36:48;1.90;;;1.80;;
74465;SDS011;62916;50.044;15.938;2023-06-14T01:39:22;2.20;;;2.00;;
74465;SDS011;62916;50.044;15.938;2023-06-14T01:41:54;3.60;;;1.90;;
74465;SDS011;62916;50.044;15.938;2023-06-14T01:44:25;2.50;;;1.90;;
74465;SDS011;62916;50.044;15.938;2023-06-14T01:46:58;2.80;;;2.00;;
74465;SDS011;62916;50.044;15.938;2023-06-14T01:49:30;2.40;;;2.10;;
74465;SDS011;62916;50.044;15.938;2023-06-14T01:52:04;2.30;;;2.10;;
74465;SDS011;62916;50.044;15.938;2023-06-14T01:54:37;3.60;;;2.10;;
74465;SDS011;62916;50.044;15.938;2023-06-14T01:57:09;2.10;;;1.90;;
74465;SDS011;62916;50.044;15.938;2023-06-14T01:59:41;2.00;;;1.80;;
74465;SDS011;62916;50.044;15.938;2023-06-14T02:02:16;2.10;;;1.90;;
74465;SDS011;62916;50.044;15.938;2023-06-14T02:04:46;1.80;;;1.70;;
74465;SDS011;62916;50.044;15.938;2023-06-14T02:07:17;2.20;;;2.00;;
74465;SDS011;62916;50.044;15.938;2023-06-14T02:09:48;2.00;;;1.70;;
74465;SDS011;62916;50.044;15.938;2023-06-14T02:12:19;2.10;;;1.90;;
74465;SDS011;62916;50.044;15.938;2023-06-14T02:14:50;2.00;;;1.80;;
74465;SDS011;62916;50.044;15.938;2023-06-14T02:17:22;2.20;;;1.70;;
74465;SDS011;62916;50.044;15.938;2023-06-14T02:19:54;2.60;;;2.00;;
74465;SDS011;62916;50.044;15.938;2023-06-14T02:22:24;2.20;;;1.70;;
74465;SDS011;62916;50.044;15.938;2023-06-14T02:24:55;2.60;;;2.00;;
74465;SDS011;62916;50.044;15.938;2023-06-14T02:27:29;2.60;;;2.20;;
74465;SDS011;62916;50.044;15.938;2023-06-14T02:30:00;2.10;;;1.90;;
74465;SDS011;62916;50.044;15.938;2023-06-14T02:32:32;2.30;;;1.90;;
74465;SDS011;62916;50.044;15.938;2023-06-14T02:35:04;2.30;;;1.90;;
74465;SDS011;62916;50.044;15.938;2023-06-14T02:37:36;2.10;;;1.80;;
74465;SDS011;62916;50.044;15.938;2023-06-14T02:40:08;2.10;;;1.90;;
74465;SDS011;62916;50.044;15.938;2023-06-14T02:42:41;2.20;;;2.00;;
74465;SDS011;62916;50.044;15.938;2023-06-14T02:45:11;2.10;;;1.80;;
74465;SDS011;62916;50.044;15.938;2023-06-14T02:47:42;1.80;;;1.70;;
74465;SDS011;62916;50.044;15.938;2023-06-14T02:50:14;2.40;;;2.20;;
74465;SDS011;62916;50.044;15.938;2023-06-14T02:52:45;2.20;;;2.00;;
74465;SDS011;62916;50.044;15.938;2023-06-14T02:55:16;1.70;;;1.60;;
74465;SDS011;62916;50.044;15.938;2023-06-14T02:57:47;2.20;;;1.90;;
74465;SDS011;62916;50.044;15.938;2023-06-14T03:00:18;2.40;;;2.10;;
74465;SDS011;62916;50.044;15.938;2023-06-14T03:02:49;2.60;;;2.10;;
74465;SDS011;62916;50.044;15.938;2023-06-14T03:05:22;2.30;;;2.10;;
74465;SDS011;62916;50.044;15.938;2023-06-14T03:07:55;2.30;;;1.80;;
74465;SDS011;62916;50.044;15.938;2023-06-14T03:10:26;1.90;;;1.70;;
74465;SDS011;62916;50.044;15.938;2023-06-14T03:12:57;2.80;;;2.40;;
74465;SDS011;62916;50.044;15.938;2023-06-14T03:15:30;2.20;;;2.00;;
74465;SDS011;62916;50.044;15.938;2023-06-14T03:18:01;2.10;;;1.90;;
74465;SDS011;62916;50.044;15.938;2023-06-14T03:20:32;2.20;;;1.90;;
74465;SDS011;62916;50.044;15.938;2023-06-14T03:23:04;2.40;;;2.20;;
74465;SDS011;62916;50.044;15.938;2023-06-14T03:25:35;2.30;;;2.00;;
74465;SDS011;62916;50.044;15.938;2023-06-14T03:28:08;2.30;;;2.00;;
74465;SDS011;62916;50.044;15.938;2023-06-14T03:30:39;2.20;;;1.70;;
74465;SDS011;62916;50.044;15.938;2023-06-14T03:33:11;2.00;;;1.80;;
74465;SDS011;62916;50.044;15.938;2023-06-14T03:35:43;4.20;;;2.20;;
74465;SDS011;62916;50.044;15.938;2023-06-14T03:38:14;1.90;;;1.60;;
74465;SDS011;62916;50.044;15.938;2023-06-14T03:40:45;2.90;;;1.90;;
74465;SDS011;62916;50.044;15.938;2023-06-14T03:43:15;1.60;;;1.50;;
74465;SDS011;62916;50.044;15.938;2023-06-14T03:45:46;2.00;;;1.70;;
74465;SDS011;62916;50.044;15.938;2023-06-14T03:48:17;2.30;;;2.00;;
74465;SDS011;62916;50.044;15.938;2023-06-14T03:50:48;2.80;;;2.00;;
74465;SDS011;62916;50.044;15.938;2023-06-14T03:53:20;2.20;;;1.80;;
74465;SDS011;62916;50.044;15.938;2023-06-14T03:55:51;3.40;;;2.20;;
74465;SDS011;62916;50.044;15.938;2023-06-14T03:58:24;2.40;;;2.00;;
74465;SDS011;62916;50.044;15.938;2023-06-14T04:00:56;2.40;;;2.20;;
74465;SDS011;62916;50.044;15.938;2023-06-14T04:03:27;2.20;;;2.00;;
74465;SDS011;62916;50.044;15.938;2023-06-14T04:05:58;3.10;;;1.90;;
74465;SDS011;62916;50.044;15.938;2023-06-14T04:08:29;1.80;;;1.70;;
74465;SDS011;62916;50.044;15.938;2023-06-14T04:11:01;3.10;;;1.90;;
74465;SDS011;62916;50.044;15.938;2023-06-14T04:13:32;2.60;;;2.30;;
74465;SDS011;62916;50.044;15.938;2023-06-14T04:16:04;10.80;;;2.50;;
74465;SDS011;62916;50.044;15.938;2023-06-14T04:18:35;10.70;;;2.60;;
74465;SDS011;62916;50.044;15.938;2023-06-14T04:21:06;7.80;;;2.10;;
74465;SDS011;62916;50.044;15.938;2023-06-14T04:23:37;10.70;;;2.80;;
74465;SDS011;62916;50.044;15.938;2023-06-14T04:26:12;6.30;;;2.50;;
74465;SDS011;62916;50.044;15.938;2023-06-14T04:28:43;10.80;;;2.60;;
74465;SDS011;62916;50.044;15.938;2023-06-14T04:31:15;7.00;;;3.00;;
74465;SDS011;62916;50.044;15.938;2023-06-14T04:33:46;7.00;;;2.50;;
74465;SDS011;62916;50.044;15.938;2023-06-14T04:36:19;11.00;;;2.60;;
74465;SDS011;62916;50.044;15.938;2023-06-14T04:38:50;7.20;;;2.40;;
74465;SDS011;62916;50.044;15.938;2023-06-14T04:41:22;5.60;;;2.50;;
74465;SDS011;62916;50.044;15.938;2023-06-14T04:43:59;6.40;;;2.50;;
74465;SDS011;62916;50.044;15.938;2023-06-14T04:46:30;8.00;;;2.20;;
74465;SDS011;62916;50.044;15.938;2023-06-14T04:49:01;4.30;;;2.40;;
74465;SDS011;62916;50.044;15.938;2023-06-14T04:51:32;5.30;;;2.20;;
74465;SDS011;62916;50.044;15.938;2023-06-14T04:54:04;7.00;;;2.50;;
74465;SDS011;62916;50.044;15.938;2023-06-14T04:56:37;4.60;;;2.80;;
74465;SDS011;62916;50.044;15.938;2023-06-14T04:59:08;4.60;;;2.30;;
74465;SDS011;62916;50.044;15.938;2023-06-14T05:01:40;7.10;;;2.30;;
74465;SDS011;62916;50.044;15.938;2023-06-14T05:04:16;4.70;;;2.30;;
74465;SDS011;62916;50.044;15.938;2023-06-14T05:06:47;3.90;;;2.00;;
74465;SDS011;62916;50.044;15.938;2023-06-14T05:09:18;3.70;;;2.20;;
74465;SDS011;62916;50.044;15.938;2023-06-14T05:11:49;4.40;;;2.40;;
74465;SDS011;62916;50.044;15.938;2023-06-14T05:14:20;7.30;;;2.20;;
74465;SDS011;62916;50.044;15.938;2023-06-14T05:16:51;3.70;;;2.40;;
74465;SDS011;62916;50.044;15.938;2023-06-14T05:19:23;3.70;;;2.20;;
74465;SDS011;62916;50.044;15.938;2023-06-14T05:21:54;3.70;;;2.60;;
74465;SDS011;62916;50.044;15.938;2023-06-14T05:24:25;3.70;;;1.90;;
74465;SDS011;62916;50.044;15.938;2023-06-14T05:26:57;2.70;;;2.00;;
74465;SDS011;62916;50.044;15.938;2023-06-14T05:29:29;4.20;;;2.30;;
74465;SDS011;62916;50.044;15.938;2023-06-14T05:31:59;2.30;;;2.10;;
74465;SDS011;62916;50.044;15.938;2023-06-14T05:34:31;3.60;;;2.30;;
74465;SDS011;62916;50.044;15.938;2023-06-14T05:37:03;3.10;;;2.20;;
74465;SDS011;62916;50.044;15.938;2023-06-14T05:39:34;2.00;;;1.80;;
74465;SDS011;62916;50.044;15.938;2023-06-14T05:42:06;3.00;;;2.20;;
74465;SDS011;62916;50.044;15.938;2023-06-14T05:44:37;3.10;;;2.60;;
74465;SDS011;62916;50.044;15.938;2023-06-14T05:47:08;2.70;;;2.30;;
74465;SDS011;62916;50.044;15.938;2023-06-14T05:49:39;2.30;;;2.10;;
74465;SDS011;62916;50.044;15.938;2023-06-14T05:52:10;3.10;;;2.30;;
74465;SDS011;62916;50.044;15.938;2023-06-14T05:54:41;4.20;;;2.60;;
74465;SDS011;62916;50.044;15.938;2023-06-14T05:57:12;2.60;;;2.20;;
74465;SDS011;62916;50.044;15.938;2023-06-14T05:59:43;2.40;;;2.20;;
74465;SDS011;62916;50.044;15.938;2023-06-14T06:02:13;3.00;;;2.30;;
74465;SDS011;62916;50.044;15.938;2023-06-14T06:04:44;2.40;;;2.20;;
74465;SDS011;62916;50.044;15.938;2023-06-14T06:07:15;2.60;;;2.40;;
74465;SDS011;62916;50.044;15.938;2023-06-14T06:09:46;2.50;;;2.20;;
74465;SDS011;62916;50.044;15.938;2023-06-14T06:12:17;3.50;;;2.60;;
74465;SDS011;62916;50.044;15.938;2023-06-14T06:14:48;2.50;;;2.30;;
74465;SDS011;62916;50.044;15.938;2023-06-14T06:17:19;2.90;;;2.20;;
74465;SDS011;62916;50.044;15.938;2023-06-14T06:19:49;3.60;;;2.00;;
74465;SDS011;62916;50.044;15.938;2023-06-14T06:22:20;2.30;;;2.10;;
74465;SDS011;62916;50.044;15.938;2023-06-14T06:24:51;3.30;;;2.80;;
74465;SDS011;62916;50.044;15.938;2023-06-14T06:27:22;3.10;;;2.30;;
74465;SDS011;62916;50.044;15.938;2023-06-14T06:29:53;2.90;;;2.70;;
74465;SDS011;62916;50.044;15.938;2023-06-14T06:32:24;2.70;;;2.30;;
74465;SDS011;62916;50.044;15.938;2023-06-14T06:34:55;2.20;;;2.00;;
74465;SDS011;62916;50.044;15.938;2023-06-14T06:37:27;2.60;;;2.20;;
74465;SDS011;62916;50.044;15.938;2023-06-14T06:39:58;2.80;;;2.20;;
74465;SDS011;62916;50.044;15.938;2023-06-14T06:42:29;3.30;;;2.40;;
74465;SDS011;62916;50.044;15.938;2023-06-14T06:45:00;2.90;;;2.50;;
74465;SDS011;62916;50.044;15.938;2023-06-14T06:47:32;2.40;;;2.20;;
74465;SDS011;62916;50.044;15.938;2023-06-14T06:50:03;3.10;;;2.10;;
74465;SDS011;62916;50.044;15.938;2023-06-14T06:52:36;2.70;;;2.40;;
74465;SDS011;62916;50.044;15.938;2023-06-14T06:55:08;2.20;;;1.90;;
74465;SDS011;62916;50.044;15.938;2023-06-14T06:57:41;2.70;;;2.50;;
74465;SDS011;62916;50.044;15.938;2023-06-14T07:00:12;2.70;;;2.20;;
74465;SDS011;62916;50.044;15.938;2023-06-14T07:02:46;2.80;;;2.50;;
74465;SDS011;62916;50.044;15.938;2023-06-14T07:05:17;2.80;;;2.50;;
74465;SDS011;62916;50.044;15.938;2023-06-14T07:07:48;3.00;;;2.70;;
74465;SDS011;62916;50.044;15.938;2023-06-14T07:10:19;2.90;;;2.50;;
74465;SDS011;62916;50.044;15.938;2023-06-14T07:12:49;2.40;;;2.20;;
74465;SDS011;62916;50.044;15.938;2023-06-14T07:15:20;4.00;;;2.50;;
74465;SDS011;62916;50.044;15.938;2023-06-14T07:17:51;3.00;;;2.70;;
74465;SDS011;62916;50.044;15.938;2023-06-14T07:20:27;2.40;;;2.20;;
74465;SDS011;62916;50.044;15.938;2023-06-14T07:22:58;2.90;;;2.30;;
74465;SDS011;62916;50.044;15.938;2023-06-14T07:25:29;3.00;;;2.60;;
74465;SDS011;62916;50.044;15.938;2023-06-14T07:28:00;2.30;;;2.10;;
74465;SDS011;62916;50.044;15.938;2023-06-14T07:30:31;2.50;;;2.30;;
74465;SDS011;62916;50.044;15.938;2023-06-14T07:33:02;3.30;;;3.00;;
74465;SDS011;62916;50.044;15.938;2023-06-14T07:35:33;2.30;;;2.10;;
74465;SDS011;62916;50.044;15.938;2023-06-14T07:38:07;3.90;;;2.80;;
74465;SDS011;62916;50.044;15.938;2023-06-14T07:40:38;2.50;;;2.20;;
74465;SDS011;62916;50.044;15.938;2023-06-14T07:43:09;2.30;;;2.10;;
74465;SDS011;62916;50.044;15.938;2023-06-14T07:45:40;3.10;;;2.50;;
74465;SDS011;62916;50.044;15.938;2023-06-14T07:48:29;2.70;;;2.50;;
74465;SDS011;62916;50.044;15.938;2023-06-14T07:51:03;3.60;;;2.50;;
74465;SDS011;62916;50.044;15.938;2023-06-14T07:53:33;2.90;;;2.60;;
74465;SDS011;62916;50.044;15.938;2023-06-14T07:56:04;3.70;;;2.50;;
74465;SDS011;62916;50.044;15.938;2023-06-14T07:58:35;3.00;;;2.70;;
74465;SDS011;62916;50.044;15.938;2023-06-14T08:01:06;2.60;;;2.40;;
74465;SDS011;62916;50.044;15.938;2023-06-14T08:03:38;2.60;;;2.30;;
74465;SDS011;62916;50.044;15.938;2023-06-14T08:06:09;2.70;;;2.20;;
74465;SDS011;62916;50.044;15.938;2023-06-14T08:08:40;3.00;;;2.30;;
74465;SDS011;62916;50.044;15.938;2023-06-14T08:11:11;2.40;;;2.20;;
74465;SDS011;62916;50.044;15.938;2023-06-14T08:13:42;2.60;;;2.40;;
74465;SDS011;62916;50.044;15.938;2023-06-14T08:16:13;3.20;;;2.60;;
74465;SDS011;62916;50.044;15.938;2023-06-14T08:18:44;3.00;;;2.70;;
74465;SDS011;62916;50.044;15.938;2023-06-14T08:21:15;3.10;;;2.40;;
74465;SDS011;62916;50.044;15.938;2023-06-14T08:23:46;3.90;;;2.60;;
74465;SDS011;62916;50.044;15.938;2023-06-14T08:26:21;3.80;;;2.70;;
74465;SDS011;62916;50.044;15.938;2023-06-14T08:28:57;3.20;;;2.30;;
74465;SDS011;62916;50.044;15.938;2023-06-14T08:31:28;3.10;;;2.70;;
74465;SDS011;62916;50.044;15.938;2023-06-14T08:33:59;3.80;;;3.00;;
74465;SDS011;62916;50.044;15.938;2023-06-14T08:36:33;3.60;;;2.90;;
74465;SDS011;62916;50.044;15.938;2023-06-14T08:39:05;3.30;;;3.00;;
74465;SDS011;62916;50.044;15.938;2023-06-14T08:41:37;3.00;;;2.60;;
74465;SDS011;62916;50.044;15.938;2023-06-14T08:44:08;2.90;;;2.50;;
74465;SDS011;62916;50.044;15.938;2023-06-14T08:46:39;2.70;;;2.40;;
74465;SDS011;62916;50.044;15.938;2023-06-14T08:49:11;2.80;;;2.30;;
74465;SDS011;62916;50.044;15.938;2023-06-14T08:51:45;3.70;;;3.40;;
74465;SDS011;62916;50.044;15.938;2023-06-14T08:54:19;2.50;;;2.30;;
74465;SDS011;62916;50.044;15.938;2023-06-14T08:56:52;2.50;;;2.30;;
74465;SDS011;62916;50.044;15.938;2023-06-14T08:59:25;2.20;;;2.00;;
74465;SDS011;62916;50.044;15.938;2023-06-14T09:01:56;2.90;;;2.40;;
74465;SDS011;62916;50.044;15.938;2023-06-14T09:04:40;2.60;;;2.40;;
74465;SDS011;62916;50.044;15.938;2023-06-14T09:07:12;2.90;;;2.20;;
74465;SDS011;62916;50.044;15.938;2023-06-14T09:09:43;3.00;;;2.10;;
74465;SDS011;62916;50.044;15.938;2023-06-14T09:12:33;3.80;;;2.60;;
74465;SDS011;62916;50.044;15.938;2023-06-14T09:15:05;3.60;;;2.90;;
74465;SDS011;62916;50.044;15.938;2023-06-14T09:17:37;3.30;;;2.40;;
74465;SDS011;62916;50.044;15.938;2023-06-14T09:20:10;2.80;;;2.00;;
74465;SDS011;62916;50.044;15.938;2023-06-14T09:22:46;2.90;;;2.60;;
74465;SDS011;62916;50.044;15.938;2023-06-14T09:25:19;3.00;;;2.20;;
74465;SDS011;62916;50.044;15.938;2023-06-14T09:28:07;2.50;;;2.30;;
74465;SDS011;62916;50.044;15.938;2023-06-14T09:30:38;2.40;;;2.20;;
74465;SDS011;62916;50.044;15.938;2023-06-14T09:33:09;2.50;;;2.30;;
74465;SDS011;62916;50.044;15.938;2023-06-14T09:35:46;2.40;;;2.10;;
74465;SDS011;62916;50.044;15.938;2023-06-14T09:38:21;2.30;;;2.10;;
74465;SDS011;62916;50.044;15.938;2023-06-14T09:40:53;3.30;;;2.70;;
74465;SDS011;62916;50.044;15.938;2023-06-14T09:45:57;2.50;;;2.30;;
74465;SDS011;62916;50.044;15.938;2023-06-14T09:48:29;2.30;;;2.10;;
74465;SDS011;62916;50.044;15.938;2023-06-14T09:51:00;2.50;;;2.20;;
74465;SDS011;62916;50.044;15.938;2023-06-14T09:53:33;2.70;;;2.30;;
74465;SDS011;62916;50.044;15.938;2023-06-14T09:56:05;2.70;;;2.10;;
74465;SDS011;62916;50.044;15.938;2023-06-14T09:58:38;2.60;;;2.40;;
74465;SDS011;62916;50.044;15.938;2023-06-14T10:01:17;2.40;;;2.20;;
74465;SDS011;62916;50.044;15.938;2023-06-14T10:03:49;2.40;;;2.20;;
74465;SDS011;62916;50.044;15.938;2023-06-14T10:06:36;2.40;;;2.20;;
74465;SDS011;62916;50.044;15.938;2023-06-14T10:09:09;2.80;;;2.60;;
74465;SDS011;62916;50.044;15.938;2023-06-14T10:11:42;3.10;;;2.30;;
74465;SDS011;62916;50.044;15.938;2023-06-14T10:14:14;2.80;;;2.40;;
74465;SDS011;62916;50.044;15.938;2023-06-14T10:16:47;2.80;;;2.60;;
74465;SDS011;62916;50.044;15.938;2023-06-14T10:19:26;2.30;;;2.10;;
74465;SDS011;62916;50.044;15.938;2023-06-14T10:22:04;3.00;;;2.70;;
74465;SDS011;62916;50.044;15.938;2023-06-14T10:24:40;3.40;;;2.30;;
74465;SDS011;62916;50.044;15.938;2023-06-14T10:27:14;2.90;;;2.20;;
74465;SDS011;62916;50.044;15.938;2023-06-14T10:30:03;2.10;;;1.90;;
74465;SDS011;62916;50.044;15.938;2023-06-14T10:32:36;2.60;;;2.40;;
74465;SDS011;62916;50.044;15.938;2023-06-14T10:35:38;2.20;;;2.00;;
74465;SDS011;62916;50.044;15.938;2023-06-14T10:38:10;2.20;;;1.90;;
74465;SDS011;62916;50.044;15.938;2023-06-14T10:40:42;2.40;;;2.10;;
74465;SDS011;62916;50.044;15.938;2023-06-14T10:43:24;2.10;;;1.90;;
74465;SDS011;62916;50.044;15.938;2023-06-14T10:48:45;2.50;;;2.30;;
74465;SDS011;62916;50.044;15.938;2023-06-14T10:51:17;2.50;;;2.20;;
74465;SDS011;62916;50.044;15.938;2023-06-14T10:53:49;2.30;;;2.10;;
74465;SDS011;62916;50.044;15.938;2023-06-14T10:56:29;2.50;;;2.30;;
74465;SDS011;62916;50.044;15.938;2023-06-14T10:59:02;2.90;;;2.40;;
74465;SDS011;62916;50.044;15.938;2023-06-14T11:01:35;2.50;;;2.30;;
74465;SDS011;62916;50.044;15.938;2023-06-14T11:04:10;2.10;;;1.90;;
74465;SDS011;62916;50.044;15.938;2023-06-14T11:06:48;2.60;;;2.40;;
74465;SDS011;62916;50.044;15.938;2023-06-14T11:12:21;2.90;;;2.10;;
74465;SDS011;62916;50.044;15.938;2023-06-14T11:14:56;2.60;;;2.20;;
74465;SDS011;62916;50.044;15.938;2023-06-14T11:17:27;2.60;;;2.40;;
74465;SDS011;62916;50.044;15.938;2023-06-14T11:20:11;2.20;;;2.00;;
74465;SDS011;62916;50.044;15.938;2023-06-14T11:22:49;2.40;;;2.20;;
74465;SDS011;62916;50.044;15.938;2023-06-14T11:25:20;2.00;;;1.80;;
74465;SDS011;62916;50.044;15.938;2023-06-14T11:27:51;2.80;;;2.40;;
74465;SDS011;62916;50.044;15.938;2023-06-14T11:30:23;2.30;;;2.00;;
74465;SDS011;62916;50.044;15.938;2023-06-14T11:32:54;2.20;;;2.00;;
74465;SDS011;62916;50.044;15.938;2023-06-14T11:35:26;2.50;;;1.80;;
74465;SDS011;62916;50.044;15.938;2023-06-14T11:37:57;2.60;;;2.20;;
74465;SDS011;62916;50.044;15.938;2023-06-14T11:40:30;2.60;;;2.40;;
74465;SDS011;62916;50.044;15.938;2023-06-14T11:43:01;3.80;;;2.40;;
74465;SDS011;62916;50.044;15.938;2023-06-14T11:45:33;2.50;;;2.10;;
74465;SDS011;62916;50.044;15.938;2023-06-14T11:48:05;2.80;;;2.40;;
74465;SDS011;62916;50.044;15.938;2023-06-14T11:50:37;3.00;;;2.60;;
74465;SDS011;62916;50.044;15.938;2023-06-14T11:53:08;3.50;;;2.10;;
74465;SDS011;62916;50.044;15.938;2023-06-14T11:55:39;3.20;;;2.40;;
74465;SDS011;62916;50.044;15.938;2023-06-14T11:58:12;3.60;;;2.50;;
74465;SDS011;62916;50.044;15.938;2023-06-14T12:00:43;4.10;;;2.90;;
74465;SDS011;62916;50.044;15.938;2023-06-14T12:03:17;4.30;;;3.00;;
74465;SDS011;62916;50.044;15.938;2023-06-14T12:06:05;2.50;;;2.30;;
74465;SDS011;62916;50.044;15.938;2023-06-14T12:08:37;3.30;;;2.50;;
74465;SDS011;62916;50.044;15.938;2023-06-14T12:11:12;3.00;;;2.70;;
74465;SDS011;62916;50.044;15.938;2023-06-14T12:13:44;3.50;;;2.90;;
74465;SDS011;62916;50.044;15.938;2023-06-14T12:16:17;3.40;;;3.00;;
74465;SDS011;62916;50.044;15.938;2023-06-14T12:18:48;3.30;;;2.50;;
74465;SDS011;62916;50.044;15.938;2023-06-14T12:21:22;3.40;;;2.70;;
74465;SDS011;62916;50.044;15.938;2023-06-14T12:23:53;3.20;;;2.50;;
74465;SDS011;62916;50.044;15.938;2023-06-14T12:26:25;3.40;;;3.10;;
74465;SDS011;62916;50.044;15.938;2023-06-14T12:28:56;3.10;;;2.70;;
74465;SDS011;62916;50.044;15.938;2023-06-14T12:31:27;3.80;;;3.30;;
74465;SDS011;62916;50.044;15.938;2023-06-14T12:33:58;4.40;;;3.20;;
74465;SDS011;62916;50.044;15.938;2023-06-14T12:36:29;3.40;;;2.80;;
74465;SDS011;62916;50.044;15.938;2023-06-14T12:39:01;3.80;;;3.50;;
74465;SDS011;62916;50.044;15.938;2023-06-14T12:41:32;3.10;;;2.70;;
74465;SDS011;62916;50.044;15.938;2023-06-14T12:44:05;3.50;;;3.00;;
74465;SDS011;62916;50.044;15.938;2023-06-14T12:46:36;4.10;;;3.00;;
74465;SDS011;62916;50.044;15.938;2023-06-14T12:49:09;3.10;;;2.60;;
74465;SDS011;62916;50.044;15.938;2023-06-14T12:51:41;3.40;;;2.90;;
74465;SDS011;62916;50.044;15.938;2023-06-14T12:54:12;3.20;;;2.80;;
74465;SDS011;62916;50.044;15.938;2023-06-14T12:56:55;3.60;;;3.00;;
74465;SDS011;62916;50.044;15.938;2023-06-14T12:59:26;3.70;;;3.20;;
74465;SDS011;62916;50.044;15.938;2023-06-14T13:02:01;4.90;;;3.10;;
74465;SDS011;62916;50.044;15.938;2023-06-14T13:04:41;4.30;;;3.30;;
74465;SDS011;62916;50.044;15.938;2023-06-14T13:07:13;4.10;;;3.00;;
74465;SDS011;62916;50.044;15.938;2023-06-14T13:09:43;3.90;;;2.70;;
74465;SDS011;62916;50.044;15.938;2023-06-14T13:12:14;4.00;;;3.60;;
74465;SDS011;62916;50.044;15.938;2023-06-14T13:14:45;4.30;;;3.90;;
74465;SDS011;62916;50.044;15.938;2023-06-14T13:17:16;4.00;;;3.00;;
74465;SDS011;62916;50.044;15.938;2023-06-14T13:19:47;4.10;;;2.90;;
74465;SDS011;62916;50.044;15.938;2023-06-14T13:22:19;5.10;;;3.60;;
74465;SDS011;62916;50.044;15.938;2023-06-14T13:24:49;4.20;;;3.20;;
74465;SDS011;62916;50.044;15.938;2023-06-14T13:27:20;3.90;;;2.90;;
74465;SDS011;62916;50.044;15.938;2023-06-14T13:29:52;3.70;;;2.90;;
74465;SDS011;62916;50.044;15.938;2023-06-14T13:32:23;3.80;;;3.30;;
74465;SDS011;62916;50.044;15.938;2023-06-14T13:34:54;3.90;;;3.00;;
74465;SDS011;62916;50.044;15.938;2023-06-14T13:37:25;3.30;;;2.90;;
74465;SDS011;62916;50.044;15.938;2023-06-14T13:39:56;3.70;;;3.00;;
74465;SDS011;62916;50.044;15.938;2023-06-14T13:42:27;3.70;;;3.00;;
74465;SDS011;62916;50.044;15.938;2023-06-14T13:45:00;4.20;;;3.20;;
74465;SDS011;62916;50.044;15.938;2023-06-14T13:47:31;3.50;;;2.90;;
74465;SDS011;62916;50.044;15.938;2023-06-14T13:50:03;3.80;;;3.00;;
74465;SDS011;62916;50.044;15.938;2023-06-14T13:52:36;3.80;;;2.90;;
74465;SDS011;62916;50.044;15.938;2023-06-14T13:55:08;3.30;;;2.90;;
74465;SDS011;62916;50.044;15.938;2023-06-14T13:57:39;3.40;;;2.80;;
74465;SDS011;62916;50.044;15.938;2023-06-14T14:00:12;3.90;;;3.20;;
74465;SDS011;62916;50.044;15.938;2023-06-14T14:02:49;4.60;;;3.30;;
74465;SDS011;62916;50.044;15.938;2023-06-14T14:05:20;3.50;;;3.00;;
74465;SDS011;62916;50.044;15.938;2023-06-14T14:07:56;3.50;;;2.80;;
74465;SDS011;62916;50.044;15.938;2023-06-14T14:10:27;3.90;;;3.10;;
74465;SDS011;62916;50.044;15.938;2023-06-14T14:12:58;4.10;;;3.70;;
74465;SDS011;62916;50.044;15.938;2023-06-14T14:15:30;4.80;;;3.10;;
74465;SDS011;62916;50.044;15.938;2023-06-14T14:18:02;4.10;;;3.20;;
74465;SDS011;62916;50.044;15.938;2023-06-14T14:20:33;3.90;;;2.70;;
74465;SDS011;62916;50.044;15.938;2023-06-14T14:23:05;3.50;;;2.80;;
74465;SDS011;62916;50.044;15.938;2023-06-14T14:25:36;3.20;;;2.40;;
74465;SDS011;62916;50.044;15.938;2023-06-14T14:28:07;3.70;;;2.80;;
74465;SDS011;62916;50.044;15.938;2023-06-14T14:30:39;12.20;;;4.10;;
74465;SDS011;62916;50.044;15.938;2023-06-14T14:33:09;9.60;;;3.40;;
74465;SDS011;62916;50.044;15.938;2023-06-14T14:35:44;9.70;;;4.00;;
74465;SDS011;62916;50.044;15.938;2023-06-14T14:38:15;8.80;;;3.60;;
74465;SDS011;62916;50.044;15.938;2023-06-14T14:40:47;7.30;;;3.70;;
74465;SDS011;62916;50.044;15.938;2023-06-14T14:43:18;6.10;;;3.30;;
74465;SDS011;62916;50.044;15.938;2023-06-14T14:45:49;6.60;;;3.80;;
74465;SDS011;62916;50.044;15.938;2023-06-14T14:48:20;7.00;;;4.20;;
74465;SDS011;62916;50.044;15.938;2023-06-14T14:50:51;6.00;;;3.40;;
74465;SDS011;62916;50.044;15.938;2023-06-14T14:53:22;8.60;;;3.80;;
74465;SDS011;62916;50.044;15.938;2023-06-14T14:55:56;7.40;;;3.80;;
74465;SDS011;62916;50.044;15.938;2023-06-14T14:58:27;5.50;;;3.30;;
74465;SDS011;62916;50.044;15.938;2023-06-14T15:00:59;9.30;;;3.60;;
74465;SDS011;62916;50.044;15.938;2023-06-14T15:03:30;5.90;;;3.50;;
74465;SDS011;62916;50.044;15.938;2023-06-14T15:06:21;5.30;;;3.30;;
74465;SDS011;62916;50.044;15.938;2023-06-14T15:08:52;5.10;;;3.40;;
74465;SDS011;62916;50.044;15.938;2023-06-14T15:11:23;4.40;;;3.10;;